createdAt,value
2023-09-23T00:01:32.234Z,5.68
2023-09-23T00:06:26.180Z,4.80
2023-09-23T00:08:53.042Z,4.75
2023-09-23T00:11:19.885Z,4.85
2023-09-23T00:13:47.129Z,4.88
2023-09-23T00:16:16.864Z,4.22
2023-09-23T00:18:45.007Z,4.18
2023-09-23T00:21:13.928Z,4.15
2023-09-23T00:23:41.260Z,4.00
2023-09-23T00:26:08.617Z,4.38
2023-09-23T00:28:35.769Z,3.75
2023-09-23T00:31:03.757Z,3.53
2023-09-23T00:33:32.033Z,3.95
2023-09-23T00:36:00.078Z,3.95
2023-09-23T00:38:28.322Z,3.60
2023-09-23T00:40:56.926Z,3.78
2023-09-23T00:43:24.657Z,3.67
2023-09-23T00:45:53.639Z,3.92
2023-09-23T00:48:22.386Z,3.97
2023-09-23T00:50:54.901Z,3.88
2023-09-23T00:53:23.915Z,3.65
2023-09-23T00:55:56.529Z,3.47
2023-09-23T00:58:27.920Z,3.22
2023-09-23T01:00:56.272Z,3.50
2023-09-23T01:03:23.823Z,3.45
2023-09-23T01:06:05.325Z,4.13
2023-09-23T01:08:32.275Z,3.30
2023-09-23T01:11:00.852Z,3.60
2023-09-23T01:13:31.137Z,3.50
2023-09-23T01:15:58.671Z,3.42
2023-09-23T01:18:25.531Z,3.63
2023-09-23T01:20:57.164Z,3.53
2023-09-23T01:23:24.801Z,3.33
2023-09-23T01:25:51.868Z,2.92
2023-09-23T01:28:19.816Z,3.70
2023-09-23T01:30:47.044Z,3.40
2023-09-23T01:33:17.425Z,3.75
2023-09-23T01:35:45.040Z,3.88
2023-09-23T01:38:12.577Z,4.00
2023-09-23T01:40:44.531Z,4.07
2023-09-23T01:43:12.019Z,3.20
2023-09-23T01:45:39.627Z,3.60
2023-09-23T01:48:08.403Z,4.05
2023-09-23T01:50:35.474Z,3.65
2023-09-23T01:53:02.397Z,3.78
2023-09-23T01:55:29.730Z,4.35
2023-09-23T02:01:31.641Z,3.75
2023-09-23T02:03:58.959Z,3.80
2023-09-23T02:06:30.144Z,3.80
2023-09-23T02:08:58.612Z,3.38
2023-09-23T02:11:25.855Z,3.75
2023-09-23T02:13:53.224Z,3.20
2023-09-23T02:16:20.134Z,3.42
2023-09-23T02:18:52.296Z,3.15
2023-09-23T02:21:21.999Z,4.20
2023-09-23T02:23:48.880Z,3.63
2023-09-23T02:26:15.740Z,4.00
2023-09-23T02:28:42.714Z,3.85
2023-09-23T02:31:09.608Z,4.03
2023-09-23T02:33:36.460Z,4.72
2023-09-23T02:36:03.431Z,5.38
2023-09-23T02:38:45.778Z,6.05
2023-09-23T02:41:12.863Z,4.85
2023-09-23T02:43:39.751Z,4.00
2023-09-23T02:46:07.976Z,3.65
2023-09-23T02:48:35.114Z,4.50
2023-09-23T02:51:04.895Z,3.80
2023-09-23T02:53:32.119Z,3.60
2023-09-23T02:56:09.284Z,5.22
2023-09-23T02:58:36.509Z,4.50
2023-09-23T03:01:06.162Z,4.90
2023-09-23T03:03:41.477Z,4.25
2023-09-23T03:08:38.848Z,4.40
2023-09-23T03:11:11.044Z,4.47
2023-09-23T03:13:38.144Z,4.82
2023-09-23T03:16:12.438Z,4.68
2023-09-23T03:19:11.483Z,4.85
2023-09-23T03:21:46.341Z,6.65
2023-09-23T03:24:14.532Z,9.27
2023-09-23T03:26:42.020Z,9.65
2023-09-23T03:29:09.552Z,8.25
2023-09-23T03:31:36.497Z,6.88
2023-09-23T03:34:04.848Z,6.38
2023-09-23T03:36:32.890Z,6.53
2023-09-23T03:39:01.964Z,5.88
2023-09-23T03:41:29.561Z,6.35
2023-09-23T03:43:56.442Z,6.18
2023-09-23T03:46:23.306Z,5.65
2023-09-23T03:48:50.457Z,5.78
2023-09-23T03:51:17.563Z,5.75
2023-09-23T03:53:45.399Z,5.88
2023-09-23T03:56:12.528Z,6.03
2023-09-23T03:58:42.114Z,5.78
2023-09-23T04:01:14.810Z,6.28
2023-09-23T04:03:42.772Z,5.75
2023-09-23T04:06:09.769Z,5.93
2023-09-23T04:08:36.583Z,7.10
2023-09-23T04:11:08.767Z,6.78
2023-09-23T04:13:35.614Z,5.78
2023-09-23T04:16:02.609Z,5.97
2023-09-23T04:18:30.566Z,5.60
2023-09-23T04:20:57.643Z,5.65
2023-09-23T04:23:24.650Z,6.10
2023-09-23T04:25:51.782Z,5.28
2023-09-23T04:28:19.854Z,5.57
2023-09-23T04:30:46.890Z,6.13
2023-09-23T04:33:13.896Z,4.90
2023-09-23T04:35:41.433Z,4.88
2023-09-23T04:38:08.425Z,5.30
2023-09-23T04:40:35.610Z,4.75
2023-09-23T04:43:05.521Z,5.10
2023-09-23T04:45:32.450Z,4.78
2023-09-23T04:48:02.200Z,5.85
2023-09-23T04:50:29.308Z,4.90
2023-09-23T04:52:56.184Z,4.75
2023-09-23T04:55:23.452Z,5.00
2023-09-23T04:57:50.359Z,5.75
2023-09-23T05:00:20.226Z,5.07
2023-09-23T05:02:50.239Z,5.90
2023-09-23T05:05:18.978Z,4.50
2023-09-23T05:07:46.488Z,5.13
2023-09-23T05:10:14.058Z,5.40
2023-09-23T05:12:41.333Z,5.00
2023-09-23T05:15:16.962Z,5.45
2023-09-23T05:17:45.410Z,4.60
2023-09-23T05:20:26.264Z,5.22
2023-09-23T05:22:53.710Z,4.53
2023-09-23T05:25:21.321Z,4.57
2023-09-23T05:27:48.173Z,5.00
2023-09-23T05:30:15.576Z,4.80
2023-09-23T05:32:44.121Z,5.05
2023-09-23T05:35:11.112Z,4.88
2023-09-23T05:37:41.535Z,4.97
2023-09-23T05:40:25.589Z,4.55
2023-09-23T05:42:53.243Z,4.55
2023-09-23T05:45:23.960Z,4.93
2023-09-23T05:47:52.120Z,3.78
2023-09-23T05:50:21.475Z,4.32
2023-09-23T05:52:48.985Z,4.20
2023-09-23T05:55:16.399Z,4.03
2023-09-23T05:57:43.477Z,3.65
2023-09-23T06:00:12.876Z,3.63
2023-09-23T06:02:40.479Z,3.78
2023-09-23T06:05:07.880Z,3.83
2023-09-23T06:07:34.804Z,4.05
2023-09-23T06:10:01.975Z,4.43
2023-09-23T06:12:32.385Z,4.75
2023-09-23T06:15:00.303Z,4.57
2023-09-23T06:17:29.227Z,4.90
2023-09-23T06:20:00.254Z,4.47
2023-09-23T06:22:28.512Z,4.93
2023-09-23T06:24:56.094Z,5.32
2023-09-23T06:27:23.000Z,6.03
2023-09-23T06:29:49.906Z,6.38
2023-09-23T06:32:16.850Z,6.95
2023-09-23T06:34:43.932Z,6.68
2023-09-23T06:37:10.762Z,8.00
2023-09-23T06:39:37.890Z,6.78
2023-09-23T06:42:04.855Z,6.63
2023-09-23T06:44:32.213Z,6.97
2023-09-23T06:47:02.792Z,7.25
2023-09-23T06:49:30.425Z,8.63
2023-09-23T06:51:57.377Z,9.02
2023-09-23T06:54:24.238Z,9.13
2023-09-23T06:56:53.367Z,10.90
2023-09-23T06:59:20.288Z,10.40
2023-09-23T07:01:47.360Z,9.45
2023-09-23T07:04:14.366Z,10.52
2023-09-23T07:06:41.465Z,9.48
2023-09-23T07:09:08.667Z,10.05
2023-09-23T07:11:35.535Z,9.10
2023-09-23T07:14:07.236Z,9.73
2023-09-23T07:16:34.948Z,9.65
2023-09-23T07:19:02.340Z,9.25
2023-09-23T07:21:29.641Z,10.60
2023-09-23T07:23:58.238Z,10.13
2023-09-23T07:26:25.146Z,8.25
2023-09-23T07:28:52.214Z,8.70
2023-09-23T07:31:19.592Z,8.57
2023-09-23T07:33:46.843Z,8.52
2023-09-23T07:36:14.943Z,8.07
2023-09-23T07:38:41.916Z,8.60
2023-09-23T07:41:09.147Z,8.43
2023-09-23T07:43:36.437Z,13.82
2023-09-23T07:46:03.549Z,8.73
2023-09-23T07:48:30.411Z,8.75
2023-09-23T07:50:57.266Z,8.73
2023-09-23T07:53:24.181Z,8.00
2023-09-23T07:55:51.155Z,7.38
2023-09-23T07:58:18.133Z,8.02
2023-09-23T08:00:44.988Z,7.70
2023-09-23T08:03:12.005Z,7.88
2023-09-23T08:05:38.878Z,8.25
2023-09-23T08:08:07.241Z,7.68
2023-09-23T08:10:34.162Z,7.65
2023-09-23T08:13:01.105Z,8.70
2023-09-23T08:18:54.804Z,8.18
2023-09-23T08:21:26.548Z,8.00
2023-09-23T08:23:54.023Z,9.02
2023-09-23T08:26:21.081Z,10.23
2023-09-23T08:28:47.937Z,9.48
2023-09-23T08:31:18.007Z,8.82
2023-09-23T08:33:45.478Z,9.38
2023-09-23T08:36:16.660Z,9.10
2023-09-23T08:38:43.888Z,9.48
2023-09-23T08:41:20.305Z,9.13
2023-09-23T08:43:51.382Z,8.95
2023-09-23T08:46:23.521Z,9.20
2023-09-23T08:48:50.620Z,8.55
2023-09-23T08:51:20.612Z,8.57
2023-09-23T08:53:49.578Z,8.60
2023-09-23T08:56:17.078Z,8.50
2023-09-23T08:58:46.082Z,8.68
2023-09-23T09:01:13.228Z,8.60
2023-09-23T09:03:40.096Z,8.50
2023-09-23T09:06:30.669Z,9.32
2023-09-23T09:08:57.691Z,8.70
2023-09-23T09:11:25.189Z,8.50
2023-09-23T09:13:52.590Z,8.68
2023-09-23T09:16:21.919Z,8.45
2023-09-23T09:18:52.883Z,7.75
2023-09-23T09:21:20.953Z,7.22
2023-09-23T09:23:48.074Z,7.30
2023-09-23T09:26:18.002Z,7.43
2023-09-23T09:28:45.606Z,6.97
2023-09-23T09:31:14.577Z,6.75
2023-09-23T09:34:06.134Z,6.82
2023-09-23T09:36:35.459Z,6.32
2023-09-23T09:39:10.181Z,5.70
2023-09-23T09:41:54.375Z,5.45
2023-09-23T09:44:24.373Z,5.07
2023-09-23T09:46:54.616Z,4.45
2023-09-23T09:49:22.804Z,4.25
2023-09-23T09:51:50.605Z,4.50
2023-09-23T09:54:27.803Z,4.65
2023-09-23T09:56:57.301Z,4.70
2023-09-23T09:59:28.870Z,4.32
2023-09-23T10:01:59.997Z,5.18
2023-09-23T10:04:34.950Z,4.03
2023-09-23T10:07:06.247Z,4.32
2023-09-23T10:09:33.354Z,4.07
2023-09-23T10:12:02.990Z,3.88
2023-09-23T10:14:29.858Z,4.28
2023-09-23T10:17:01.183Z,4.30
2023-09-23T10:19:32.310Z,4.78
2023-09-23T10:22:18.164Z,3.53
2023-09-23T10:24:45.564Z,3.83
2023-09-23T10:27:12.527Z,3.83
2023-09-23T10:29:48.435Z,3.92
2023-09-23T10:32:17.236Z,4.18
2023-09-23T10:34:56.588Z,4.30
2023-09-23T10:37:31.169Z,4.00
2023-09-23T10:40:14.913Z,4.80
2023-09-23T10:42:42.798Z,4.75
2023-09-23T10:45:11.065Z,4.30
2023-09-23T10:47:38.705Z,4.00
2023-09-23T10:50:07.682Z,4.32
2023-09-23T10:52:35.718Z,3.45
2023-09-23T10:55:03.425Z,3.00
2023-09-23T10:57:30.564Z,2.50
2023-09-23T10:59:59.245Z,2.65
2023-09-23T11:02:26.685Z,1.60
2023-09-23T11:04:56.827Z,1.58
2023-09-23T11:07:26.033Z,1.40
2023-09-23T11:09:54.835Z,1.63
2023-09-23T11:12:21.719Z,1.25
2023-09-23T11:14:49.855Z,1.70
2023-09-23T11:17:26.978Z,1.70
2023-09-23T11:19:58.608Z,1.90
2023-09-23T11:22:30.486Z,1.60
2023-09-23T11:24:58.674Z,1.33
2023-09-23T11:27:27.597Z,1.55
2023-09-23T11:29:56.480Z,1.90
2023-09-23T11:32:27.625Z,1.92
2023-09-23T11:34:55.817Z,1.60
2023-09-23T11:37:24.158Z,1.85
2023-09-23T11:39:51.806Z,1.30
2023-09-23T11:42:18.729Z,1.63
2023-09-23T11:44:45.729Z,1.77
2023-09-23T11:47:12.779Z,1.63
2023-09-23T11:49:39.789Z,1.88
2023-09-23T11:52:13.440Z,1.98
2023-09-23T11:54:45.340Z,1.63
2023-09-23T11:57:12.395Z,1.40
2023-09-23T11:59:39.412Z,1.48
2023-09-23T12:02:06.514Z,1.52
2023-09-23T12:04:33.941Z,1.52
2023-09-23T12:07:01.348Z,1.45
2023-09-23T12:09:29.262Z,1.42
2023-09-23T12:11:56.856Z,1.27
2023-09-23T12:14:24.197Z,1.50
2023-09-23T12:16:51.424Z,1.83
2023-09-23T12:19:19.209Z,1.67
2023-09-23T12:21:46.081Z,1.58
2023-09-23T12:24:12.943Z,1.63
2023-09-23T12:26:39.892Z,1.33
2023-09-23T12:29:07.045Z,1.30
2023-09-23T12:31:33.870Z,1.40
2023-09-23T12:34:00.783Z,1.25
2023-09-23T12:36:27.671Z,1.17
2023-09-23T12:38:56.591Z,1.30
2023-09-23T12:41:23.630Z,1.23
2023-09-23T12:43:50.575Z,1.60
2023-09-23T12:46:17.471Z,1.67
2023-09-23T12:48:46.055Z,1.35
2023-09-23T12:51:13.913Z,1.23
2023-09-23T12:53:41.258Z,1.00
2023-09-23T12:56:10.443Z,1.30
2023-09-23T12:58:38.163Z,1.35
2023-09-23T13:01:08.135Z,1.35
2023-09-23T13:03:35.490Z,1.20
2023-09-23T13:06:02.550Z,1.40
2023-09-23T13:08:29.500Z,1.70
2023-09-23T13:10:56.440Z,1.25
2023-09-23T13:13:24.122Z,1.10
2023-09-23T13:15:51.508Z,1.30
2023-09-23T13:18:18.554Z,1.02
2023-09-23T13:20:46.315Z,1.65
2023-09-23T13:23:13.517Z,1.15
2023-09-23T13:25:43.026Z,1.23
2023-09-23T13:28:10.262Z,1.10
2023-09-23T13:30:37.327Z,1.00
2023-09-23T13:33:09.750Z,0.82
2023-09-23T13:35:37.767Z,0.77
2023-09-23T13:38:06.078Z,0.75
2023-09-23T13:40:34.541Z,1.10
2023-09-23T13:43:01.377Z,0.90
2023-09-23T13:45:28.358Z,0.73
2023-09-23T13:47:55.321Z,0.85
2023-09-23T13:50:22.325Z,0.98
2023-09-23T13:52:49.231Z,0.88
2023-09-23T13:55:16.076Z,0.65
2023-09-23T13:57:43.038Z,1.00
2023-09-23T14:00:10.226Z,1.10
2023-09-23T14:02:37.336Z,1.05
2023-09-23T14:05:05.747Z,1.00
2023-09-23T14:07:33.487Z,1.00
2023-09-23T14:10:10.385Z,1.10
2023-09-23T14:12:41.962Z,0.70
2023-09-23T14:15:09.748Z,1.02
2023-09-23T14:17:37.265Z,1.10
2023-09-23T14:20:06.466Z,0.70
2023-09-23T14:22:33.286Z,1.15
2023-09-23T14:25:00.181Z,1.05
2023-09-23T14:27:27.198Z,1.25
2023-09-23T14:29:54.010Z,0.98
2023-09-23T14:32:21.436Z,1.23
2023-09-23T14:34:48.358Z,1.15
2023-09-23T14:37:15.199Z,0.80
2023-09-23T14:39:42.061Z,0.80
2023-09-23T14:42:08.971Z,0.90
2023-09-23T14:44:35.795Z,1.30
2023-09-23T14:47:02.725Z,1.10
2023-09-23T14:49:29.599Z,1.05
2023-09-23T14:51:56.539Z,0.95
2023-09-23T14:54:23.394Z,1.00
2023-09-23T14:56:50.197Z,0.90
2023-09-23T14:59:17.062Z,1.00
2023-09-23T15:01:45.399Z,1.10
2023-09-23T15:04:12.484Z,1.00
2023-09-23T15:06:39.780Z,1.00
2023-09-23T15:09:06.861Z,0.80
2023-09-23T15:11:34.252Z,1.20
2023-09-23T15:16:48.757Z,1.10
2023-09-23T15:19:15.604Z,0.93
2023-09-23T15:21:42.469Z,1.15
2023-09-23T15:24:09.770Z,1.30
2023-09-23T15:26:36.747Z,1.00
2023-09-23T15:29:03.880Z,1.23
2023-09-23T15:31:30.704Z,1.42
2023-09-23T15:36:59.657Z,1.27
2023-09-23T15:39:26.511Z,1.17
2023-09-23T15:41:55.556Z,1.50
2023-09-23T15:44:22.387Z,1.20
2023-09-23T15:47:05.610Z,1.50
2023-09-23T15:49:42.989Z,1.10
2023-09-23T15:52:12.085Z,2.20
2023-09-23T15:54:39.903Z,1.83
2023-09-23T15:57:07.143Z,1.88
2023-09-23T15:59:34.013Z,2.45
2023-09-23T16:02:03.326Z,1.83
2023-09-23T16:04:30.302Z,1.80
2023-09-23T16:06:57.479Z,2.05
2023-09-23T16:10:04.889Z,2.10
2023-09-23T16:12:31.891Z,2.00
2023-09-23T16:14:58.685Z,2.00
2023-09-23T16:17:25.631Z,2.40
2023-09-23T16:19:52.814Z,1.80
2023-09-23T16:22:20.211Z,2.20
2023-09-23T16:28:18.042Z,2.50
2023-09-23T16:30:46.176Z,2.10
2023-09-23T16:33:13.681Z,1.98
2023-09-23T16:35:40.852Z,2.25
2023-09-23T16:38:07.749Z,2.15
2023-09-23T16:40:34.723Z,2.58
2023-09-23T16:43:01.569Z,2.30
2023-09-23T16:45:28.484Z,2.72
2023-09-23T16:47:55.370Z,2.75
2023-09-23T16:50:22.685Z,2.58
2023-09-23T16:52:51.516Z,2.50
2023-09-23T16:55:20.223Z,2.83
2023-09-23T16:57:47.810Z,2.63
2023-09-23T17:03:49.462Z,2.83
2023-09-23T17:06:17.005Z,3.40
2023-09-23T17:08:44.099Z,2.53
2023-09-23T17:11:11.078Z,2.92
2023-09-23T17:13:39.785Z,2.90
2023-09-23T17:16:07.115Z,3.60
2023-09-23T17:18:34.023Z,3.35
2023-09-23T17:21:00.876Z,3.45
2023-09-23T17:23:27.789Z,3.72
2023-09-23T17:25:54.941Z,3.97
2023-09-23T17:28:21.977Z,4.43
2023-09-23T17:30:48.849Z,4.20
2023-09-23T17:33:15.869Z,4.75
2023-09-23T17:35:44.662Z,4.72
2023-09-23T17:38:11.978Z,4.07
2023-09-23T17:40:38.813Z,4.07
2023-09-23T17:43:05.653Z,4.97
2023-09-23T17:45:32.551Z,4.07
2023-09-23T17:47:59.501Z,5.03
2023-09-23T17:50:26.524Z,4.57
2023-09-23T17:52:53.835Z,4.20
2023-09-23T17:55:20.784Z,4.45
2023-09-23T17:57:48.552Z,8.05
2023-09-23T18:00:15.922Z,8.07
2023-09-23T18:02:42.888Z,6.22
2023-09-23T18:05:10.557Z,6.70
2023-09-23T18:07:39.938Z,5.68
2023-09-23T18:10:07.479Z,5.45
2023-09-23T18:12:34.368Z,5.38
2023-09-23T18:15:06.304Z,5.00
2023-09-23T18:17:33.844Z,4.82
2023-09-23T18:20:00.859Z,4.45
2023-09-23T18:22:27.724Z,5.40
2023-09-23T18:24:56.907Z,4.93
2023-09-23T18:27:23.871Z,4.95
2023-09-23T18:29:51.305Z,5.30
2023-09-23T18:32:18.330Z,3.97
2023-09-23T18:34:46.122Z,4.70
2023-09-23T18:37:13.186Z,3.97
2023-09-23T18:39:40.021Z,4.43
2023-09-23T18:42:06.916Z,4.40
2023-09-23T18:44:33.787Z,3.78
2023-09-23T18:47:00.670Z,3.80
2023-09-23T18:49:27.693Z,4.15
2023-09-23T18:51:54.546Z,4.18
2023-09-23T18:54:21.467Z,4.95
2023-09-23T18:56:48.882Z,4.20
2023-09-23T18:59:16.403Z,3.60
2023-09-23T19:01:43.358Z,3.78
2023-09-23T19:04:10.221Z,4.60
2023-09-23T19:06:37.135Z,4.13
2023-09-23T19:09:04.187Z,3.90
2023-09-23T19:11:31.236Z,3.95
2023-09-23T19:13:58.373Z,3.75
2023-09-23T19:16:25.472Z,4.28
2023-09-23T19:18:53.017Z,3.55
2023-09-23T19:21:19.840Z,4.43
2023-09-23T19:23:46.916Z,4.40
2023-09-23T19:26:14.386Z,3.35
2023-09-23T19:28:42.136Z,3.78
2023-09-23T19:31:09.164Z,3.38
2023-09-23T19:33:36.258Z,3.63
2023-09-23T19:36:03.355Z,3.10
2023-09-23T19:38:30.317Z,3.00
2023-09-23T19:40:58.069Z,3.75
2023-09-23T19:43:26.103Z,3.00
2023-09-23T19:45:59.066Z,3.33
2023-09-23T19:48:26.419Z,3.40
2023-09-23T19:50:53.557Z,3.38
2023-09-23T19:53:20.557Z,2.85
2023-09-23T19:55:48.302Z,3.20
2023-09-23T19:58:19.578Z,3.55
2023-09-23T20:00:47.097Z,3.72
2023-09-23T20:03:15.144Z,3.10
2023-09-23T20:05:42.179Z,3.13
2023-09-23T20:08:09.705Z,3.30
2023-09-23T20:10:36.886Z,2.22
2023-09-23T20:13:05.705Z,3.20
2023-09-23T20:15:37.293Z,3.45
2023-09-23T20:18:05.791Z,2.80
2023-09-23T20:20:34.873Z,3.90
2023-09-23T20:23:05.251Z,3.25
2023-09-23T20:25:32.832Z,3.33
2023-09-23T20:27:59.849Z,3.25
2023-09-23T20:30:26.767Z,3.67
2023-09-23T20:32:53.823Z,3.20
2023-09-23T20:35:21.173Z,3.20
2023-09-23T20:37:48.112Z,2.97
2023-09-23T20:40:16.866Z,3.08
2023-09-23T20:42:44.857Z,3.15
2023-09-23T20:45:13.666Z,3.30
2023-09-23T20:47:41.286Z,3.72
2023-09-23T20:50:09.296Z,3.10
2023-09-23T20:52:38.433Z,3.10
2023-09-23T20:55:07.029Z,2.92
2023-09-23T20:57:34.575Z,3.22
2023-09-23T21:00:06.195Z,3.35
2023-09-23T21:02:33.469Z,2.90
2023-09-23T21:05:01.646Z,3.28
2023-09-23T21:07:28.532Z,3.35
2023-09-23T21:09:55.370Z,3.05
2023-09-23T21:12:22.236Z,3.45
2023-09-23T21:14:49.162Z,3.83
2023-09-23T21:17:16.209Z,2.97
2023-09-23T21:19:44.314Z,3.47
2023-09-23T21:22:11.213Z,2.97
2023-09-23T21:24:38.366Z,3.20
2023-09-23T21:27:05.474Z,3.17
2023-09-23T21:29:32.351Z,3.38
2023-09-23T21:31:59.428Z,3.13
2023-09-23T21:34:26.253Z,3.13
2023-09-23T21:36:53.139Z,2.90
2023-09-23T21:39:20.033Z,2.95
2023-09-23T21:41:46.908Z,3.00
2023-09-23T21:44:13.834Z,3.70
2023-09-23T21:46:40.702Z,3.30
2023-09-23T21:49:09.195Z,3.65
2023-09-23T21:51:36.831Z,3.88
2023-09-23T21:54:03.895Z,3.03
2023-09-23T21:56:41.922Z,3.83
2023-09-23T21:59:11.129Z,3.85
2023-09-23T22:01:38.207Z,3.65
2023-09-23T22:04:08.225Z,38.33
2023-09-23T22:06:37.008Z,20.25
2023-09-23T22:09:04.477Z,10.15
2023-09-23T22:11:34.382Z,5.30
2023-09-23T22:14:06.908Z,3.78
2023-09-23T22:16:39.939Z,4.20
2023-09-23T22:19:07.311Z,4.25
2023-09-23T22:21:36.706Z,4.07
2023-09-23T22:24:08.817Z,4.85
2023-09-23T22:26:38.936Z,4.40
2023-09-23T22:29:10.186Z,5.10
2023-09-23T22:31:37.738Z,4.70
2023-09-23T22:34:05.026Z,4.55
2023-09-23T22:36:33.915Z,5.55
2023-09-23T22:39:01.517Z,4.90
2023-09-23T22:41:31.687Z,5.03
2023-09-23T22:44:00.000Z,5.05
2023-09-23T22:46:27.032Z,4.60
2023-09-23T22:48:54.958Z,4.40
2023-09-23T22:51:21.968Z,4.78
2023-09-23T22:53:48.939Z,4.20
2023-09-23T22:56:16.099Z,4.47
2023-09-23T22:58:47.795Z,4.95
2023-09-23T23:01:15.499Z,5.07
2023-09-23T23:03:42.848Z,5.65
2023-09-23T23:06:09.899Z,5.20
2023-09-23T23:08:40.011Z,5.15
2023-09-23T23:11:10.682Z,5.15
2023-09-23T23:13:38.429Z,4.70
2023-09-23T23:16:14.410Z,5.75
2023-09-23T23:18:42.348Z,5.18
2023-09-23T23:21:09.278Z,6.03
2023-09-23T23:23:36.144Z,6.10
2023-09-23T23:26:09.851Z,6.22
2023-09-23T23:28:37.441Z,6.20
2023-09-23T23:31:08.363Z,6.80
2023-09-23T23:33:35.545Z,6.68
2023-09-23T23:36:03.666Z,6.20
2023-09-23T23:38:31.677Z,5.93
2023-09-23T23:41:02.678Z,6.68
2023-09-23T23:43:29.824Z,6.22
2023-09-23T23:46:04.135Z,6.80
2023-09-23T23:48:32.720Z,7.13
2023-09-23T23:51:04.763Z,6.70
2023-09-23T23:53:33.463Z,6.60
2023-09-23T23:56:07.535Z,6.32
2023-09-23T23:58:34.629Z,6.88
